createdAt,value
2019-02-05T00:01:03.059Z,101813.14
2019-02-05T00:03:32.915Z,101811.16
2019-02-05T00:06:02.955Z,101813.56
2019-02-05T00:08:32.604Z,101814.95
2019-02-05T00:11:02.449Z,101810.72
2019-02-05T00:13:32.109Z,101811.11
2019-02-05T00:16:01.800Z,101810.88
2019-02-05T00:18:31.509Z,101812.02
2019-02-05T00:21:02.014Z,101812.34
2019-02-05T00:23:31.770Z,101806.02
2019-02-05T00:26:06.275Z,101805.84
2019-02-05T00:28:33.102Z,101808.17
2019-02-05T00:31:02.785Z,101806.22
2019-02-05T00:33:32.454Z,101797.97
2019-02-05T00:36:02.238Z,101798.70
2019-02-05T00:38:32.169Z,101813.63
2019-02-05T00:41:01.785Z,101797.45
2019-02-05T00:43:31.511Z,101794.38
2019-02-05T00:46:01.137Z,101789.25
2019-02-05T00:48:31.237Z,101791.42
2019-02-05T00:51:00.788Z,101800.52
2019-02-05T00:53:30.478Z,101789.98
2019-02-05T00:56:00.137Z,101788.30
2019-02-05T00:58:29.783Z,101786.24
2019-02-05T01:00:59.540Z,101786.63
2019-02-05T01:03:29.161Z,101783.28
2019-02-05T01:05:58.740Z,101783.28
2019-02-05T01:08:28.730Z,101788.30
2019-02-05T01:10:58.482Z,101774.19
2019-02-05T01:13:28.170Z,101774.47
2019-02-05T01:15:59.117Z,101768.83
2019-02-05T01:18:28.772Z,101759.45
2019-02-05T01:20:58.796Z,101760.19
2019-02-05T01:23:28.412Z,101751.22
2019-02-05T01:25:58.011Z,101746.03
2019-02-05T01:28:27.719Z,101745.58
2019-02-05T01:30:57.451Z,101750.83
2019-02-05T01:33:27.097Z,101746.77
2019-02-05T01:35:56.724Z,101747.10
2019-02-05T01:38:26.430Z,101741.40
2019-02-05T01:40:56.197Z,101734.88
2019-02-05T01:43:25.822Z,101735.60
2019-02-05T01:45:55.625Z,101741.45
2019-02-05T01:48:25.562Z,101734.86
2019-02-05T01:50:55.231Z,101727.34
2019-02-05T01:53:25.051Z,101724.09
2019-02-05T01:55:54.873Z,101723.41
2019-02-05T01:58:24.467Z,101718.99
2019-02-05T02:00:54.121Z,101719.98
2019-02-05T02:03:24.237Z,101710.11
2019-02-05T02:05:53.999Z,101708.14
2019-02-05T02:08:23.822Z,101704.36
2019-02-05T02:10:55.203Z,101701.11
2019-02-05T02:13:24.910Z,101698.25
2019-02-05T02:15:54.825Z,101701.33
2019-02-05T02:18:24.834Z,101700.14
2019-02-05T02:20:54.483Z,101696.80
2019-02-05T02:23:24.338Z,101697.00
2019-02-05T02:25:54.067Z,101698.29
2019-02-05T02:28:24.406Z,101688.11
2019-02-05T02:30:54.072Z,101696.00
2019-02-05T02:33:23.747Z,101699.17
2019-02-05T02:35:53.650Z,101699.17
2019-02-05T02:38:23.518Z,101700.96
2019-02-05T02:40:53.170Z,101688.21
2019-02-05T02:43:22.686Z,101693.06
2019-02-05T02:45:52.259Z,101697.13
2019-02-05T02:48:21.747Z,101698.52
2019-02-05T02:50:51.326Z,101698.59
2019-02-05T02:53:20.867Z,101690.20
2019-02-05T02:55:50.382Z,101689.52
2019-02-05T02:58:19.943Z,101701.58
2019-02-05T03:00:49.833Z,101707.12
2019-02-05T03:03:19.363Z,101708.01
2019-02-05T03:05:48.899Z,101713.75
2019-02-05T03:08:18.417Z,101715.93
2019-02-05T03:10:47.942Z,101716.53
2019-02-05T03:13:17.810Z,101706.85
2019-02-05T03:15:47.441Z,101708.60
2019-02-05T03:18:17.146Z,101707.13
2019-02-05T03:20:46.715Z,101699.13
2019-02-05T03:23:16.227Z,101696.26
2019-02-05T03:25:45.936Z,101688.75
2019-02-05T03:28:15.457Z,101693.60
2019-02-05T03:30:45.034Z,101690.93
2019-02-05T03:33:14.552Z,101698.75
2019-02-05T03:35:44.087Z,101693.90
2019-02-05T03:38:13.693Z,101694.50
2019-02-05T03:40:53.970Z,101691.20
2019-02-05T03:43:23.485Z,101692.89
2019-02-05T03:45:54.036Z,101685.27
2019-02-05T03:48:24.030Z,101698.34
2019-02-05T03:51:04.237Z,101696.27
2019-02-05T03:53:47.185Z,101697.36
2019-02-05T03:56:29.723Z,101691.53
2019-02-05T03:59:26.519Z,101685.98
2019-02-05T04:02:06.388Z,101689.05
2019-02-05T04:05:11.868Z,101689.52
2019-02-05T04:08:21.117Z,101688.44
2019-02-05T04:11:19.476Z,101694.08
2019-02-05T04:13:56.811Z,101700.11
2019-02-05T04:16:56.280Z,101694.08
2019-02-05T04:19:48.645Z,101698.83
2019-02-05T04:22:46.728Z,101689.43
2019-02-05T04:25:29.824Z,101680.72
2019-02-05T04:28:12.430Z,101688.83
2019-02-05T04:31:04.453Z,101691.80
2019-02-05T04:33:43.922Z,101675.97
2019-02-05T04:36:32.922Z,101676.56
2019-02-05T04:39:21.601Z,101668.16
2019-02-05T04:42:01.666Z,101665.58
2019-02-05T04:44:38.841Z,101663.80
2019-02-05T04:47:28.300Z,101680.52
2019-02-05T04:50:08.572Z,101683.80
2019-02-05T04:52:59.388Z,101685.58
2019-02-05T04:56:06.065Z,101681.14
2019-02-05T04:58:54.993Z,101675.97
2019-02-05T05:01:43.585Z,101677.05
2019-02-05T05:04:20.533Z,101675.84
2019-02-05T05:07:12.502Z,101682.49
2019-02-05T05:09:57.184Z,101672.50
2019-02-05T05:12:27.660Z,101671.22
2019-02-05T05:14:57.618Z,101672.89
2019-02-05T05:17:27.158Z,101665.19
2019-02-05T05:19:56.678Z,101673.69
2019-02-05T05:22:26.292Z,101678.93
2019-02-05T05:24:56.574Z,101669.14
2019-02-05T05:27:27.031Z,101659.36
2019-02-05T05:29:56.853Z,101660.64
2019-02-05T05:32:26.597Z,101659.14
2019-02-05T05:34:56.154Z,101661.42
2019-02-05T05:37:25.714Z,101651.64
2019-02-05T05:39:55.250Z,101650.45
2019-02-05T05:42:26.833Z,101645.41
2019-02-05T05:44:56.390Z,101647.69
2019-02-05T05:47:25.924Z,101646.41
2019-02-05T05:49:55.460Z,101648.09
2019-02-05T05:52:24.985Z,101666.98
2019-02-05T05:54:54.498Z,101662.23
2019-02-05T05:57:24.037Z,101658.87
2019-02-05T05:59:53.550Z,101661.55
2019-02-05T06:02:23.100Z,101668.67
2019-02-05T06:04:52.606Z,101669.24
2019-02-05T06:07:22.150Z,101663.91
2019-02-05T06:09:51.677Z,101665.30
2019-02-05T06:12:21.212Z,101672.72
2019-02-05T06:14:50.906Z,101674.01
2019-02-05T06:17:20.465Z,101673.02
2019-02-05T06:19:50.679Z,101668.97
2019-02-05T06:22:20.166Z,101665.22
2019-02-05T06:24:49.771Z,101662.25
2019-02-05T06:27:19.471Z,101669.07
2019-02-05T06:29:49.371Z,101678.57
2019-02-05T06:32:18.890Z,101672.14
2019-02-05T06:34:48.531Z,101671.81
2019-02-05T06:37:18.136Z,101671.91
2019-02-05T06:39:47.687Z,101672.61
2019-02-05T06:42:24.497Z,101669.66
2019-02-05T06:44:54.102Z,101678.95
2019-02-05T06:47:23.632Z,101685.09
2019-02-05T06:49:53.142Z,101669.77
2019-02-05T06:52:22.685Z,101677.55
2019-02-05T06:54:52.206Z,101687.15
2019-02-05T06:57:21.734Z,101687.25
2019-02-05T06:59:51.631Z,101686.86
2019-02-05T07:02:21.302Z,101692.50
2019-02-05T07:04:50.881Z,101690.42
2019-02-05T07:07:20.411Z,101691.02
2019-02-05T07:09:49.965Z,101699.83
2019-02-05T07:12:19.471Z,101704.26
2019-02-05T07:14:49.898Z,101700.59
2019-02-05T07:17:19.421Z,101715.84
2019-02-05T07:19:48.955Z,101713.88
2019-02-05T07:22:18.511Z,101722.09
2019-02-05T07:24:48.494Z,101727.01
2019-02-05T07:27:18.009Z,101725.92
2019-02-05T07:29:47.523Z,101729.89
2019-02-05T07:32:17.077Z,101727.52
2019-02-05T07:34:46.615Z,101735.34
2019-02-05T07:37:16.213Z,101735.14
2019-02-05T07:39:45.732Z,101726.80
2019-02-05T07:42:15.282Z,101730.45
2019-02-05T07:44:44.809Z,101736.80
2019-02-05T07:47:14.350Z,101735.71
2019-02-05T07:49:44.024Z,101738.84
2019-02-05T07:52:13.839Z,101738.16
2019-02-05T07:54:43.376Z,101740.23
2019-02-05T07:57:12.899Z,101726.27
2019-02-05T07:59:42.437Z,101737.23
2019-02-05T08:02:12.042Z,101732.47
2019-02-05T08:04:42.463Z,101731.64
2019-02-05T08:07:12.091Z,101729.75
2019-02-05T08:09:41.693Z,101738.27
2019-02-05T08:12:11.551Z,101747.54
2019-02-05T08:14:41.068Z,101744.66
2019-02-05T08:17:10.619Z,101750.20
2019-02-05T08:19:40.144Z,101750.59
2019-02-05T08:22:09.769Z,101752.42
2019-02-05T08:24:39.701Z,101752.31
2019-02-05T08:27:09.486Z,101749.09
2019-02-05T08:29:39.004Z,101745.41
2019-02-05T08:32:08.523Z,101746.80
2019-02-05T08:34:38.055Z,101748.37
2019-02-05T08:37:07.738Z,101748.53
2019-02-05T08:39:38.116Z,101750.10
2019-02-05T08:42:07.876Z,101758.33
2019-02-05T08:44:37.398Z,101753.56
2019-02-05T08:47:06.937Z,101755.75
2019-02-05T08:49:36.463Z,101756.64
2019-02-05T08:52:06.062Z,101759.22
2019-02-05T08:54:35.582Z,101765.77
2019-02-05T08:57:05.277Z,101767.64
2019-02-05T08:59:34.917Z,101761.04
2019-02-05T09:02:04.541Z,101761.23
2019-02-05T09:04:34.130Z,101766.86
2019-02-05T09:07:03.688Z,101770.02
2019-02-05T09:09:33.277Z,101774.94
2019-02-05T09:12:03.651Z,101775.92
2019-02-05T09:14:33.262Z,101768.67
2019-02-05T09:17:02.831Z,101774.23
2019-02-05T09:19:32.384Z,101781.97
2019-02-05T09:22:01.971Z,101771.65
2019-02-05T09:24:31.536Z,101781.97
2019-02-05T09:27:01.122Z,101781.17
2019-02-05T09:29:33.480Z,101791.95
2019-02-05T09:32:02.014Z,101778.38
2019-02-05T09:34:31.587Z,101786.73
2019-02-05T09:37:01.471Z,101787.67
2019-02-05T09:39:31.106Z,101791.08
2019-02-05T09:42:00.749Z,101788.45
2019-02-05T09:44:31.513Z,101788.78
2019-02-05T09:47:01.235Z,101786.06
2019-02-05T09:49:30.843Z,101785.98
2019-02-05T09:52:00.403Z,101790.93
2019-02-05T09:54:31.594Z,101791.11
2019-02-05T09:57:01.263Z,101798.55
2019-02-05T09:59:31.198Z,101795.96
2019-02-05T10:02:00.858Z,101802.02
2019-02-05T10:04:30.421Z,101799.13
2019-02-05T10:07:00.070Z,101810.44
2019-02-05T10:09:29.708Z,101816.95
2019-02-05T10:11:59.936Z,101819.72
2019-02-05T10:14:30.150Z,101817.40
2019-02-05T10:16:59.718Z,101814.02
2019-02-05T10:19:29.338Z,101815.30
2019-02-05T10:21:59.069Z,101808.84
2019-02-05T10:24:28.725Z,101813.61
2019-02-05T10:26:58.448Z,101813.30
2019-02-05T10:29:28.191Z,101806.98
2019-02-05T10:31:58.139Z,101801.49
2019-02-05T10:34:34.269Z,101804.88
2019-02-05T10:36:59.160Z,101803.28
2019-02-05T10:39:28.801Z,101795.30
2019-02-05T10:41:58.529Z,101809.37
2019-02-05T10:44:28.095Z,101815.26
2019-02-05T10:46:58.113Z,101805.98
2019-02-05T10:49:27.764Z,101809.05
2019-02-05T10:51:57.329Z,101809.14
2019-02-05T10:54:27.000Z,101801.95
2019-02-05T10:56:56.593Z,101800.41
2019-02-05T10:59:26.698Z,101804.94
2019-02-05T11:01:56.638Z,101800.42
2019-02-05T11:04:26.285Z,101798.24
2019-02-05T11:06:55.883Z,101798.96
2019-02-05T11:09:25.459Z,101800.34
2019-02-05T11:11:55.235Z,101803.33
2019-02-05T11:14:24.972Z,101795.98
2019-02-05T11:16:54.626Z,101796.46
2019-02-05T11:19:24.236Z,101791.14
2019-02-05T11:21:53.806Z,101787.75
2019-02-05T11:24:23.391Z,101786.86
2019-02-05T11:26:53.124Z,101790.96
2019-02-05T11:29:22.736Z,101789.60
2019-02-05T11:31:52.299Z,101788.29
2019-02-05T11:34:22.353Z,101799.86
2019-02-05T11:36:52.079Z,101793.07
2019-02-05T11:39:21.714Z,101796.64
2019-02-05T11:41:51.384Z,101803.72
2019-02-05T11:44:21.011Z,101802.34
2019-02-05T11:46:50.858Z,101802.43
2019-02-05T11:49:20.427Z,101797.42
2019-02-05T11:51:49.998Z,101804.05
2019-02-05T11:54:19.587Z,101804.38
2019-02-05T11:56:49.154Z,101805.33
2019-02-05T11:59:18.820Z,101798.45
2019-02-05T12:01:48.517Z,101800.72
2019-02-05T12:04:18.197Z,101799.09
2019-02-05T12:06:48.205Z,101797.40
2019-02-05T12:09:20.570Z,101805.81
2019-02-05T12:11:50.117Z,101804.44
2019-02-05T12:14:19.749Z,101800.50
2019-02-05T12:16:49.493Z,101797.02
2019-02-05T12:19:19.127Z,101797.75
2019-02-05T12:21:48.894Z,101793.87
2019-02-05T12:24:18.595Z,101794.67
2019-02-05T12:26:48.237Z,101795.89
2019-02-05T12:29:17.830Z,101792.89
2019-02-05T12:31:47.536Z,101792.09
2019-02-05T12:34:17.204Z,101792.34
2019-02-05T12:36:46.896Z,101801.52
2019-02-05T12:39:19.065Z,101791.01
2019-02-05T12:41:48.854Z,101795.95
2019-02-05T12:44:18.495Z,101795.63
2019-02-05T12:46:48.082Z,101790.66
2019-02-05T12:49:17.646Z,101782.88
2019-02-05T12:51:47.246Z,101783.58
2019-02-05T12:54:17.147Z,101785.52
2019-02-05T12:56:48.355Z,101783.48
2019-02-05T12:59:17.991Z,101790.69
2019-02-05T13:01:47.619Z,101793.40
2019-02-05T13:04:17.209Z,101791.53
2019-02-05T13:06:46.836Z,101794.92
2019-02-05T13:09:16.562Z,101796.02
2019-02-05T13:11:47.502Z,101788.64
2019-02-05T13:14:17.098Z,101788.00
2019-02-05T13:16:46.726Z,101784.97
2019-02-05T13:19:16.428Z,101795.73
2019-02-05T13:21:46.374Z,101795.25
2019-02-05T13:24:16.773Z,101799.95
2019-02-05T13:26:46.484Z,101794.05
2019-02-05T13:29:16.045Z,101795.66
2019-02-05T13:31:45.706Z,101802.39
2019-02-05T13:34:15.452Z,101805.50
2019-02-05T13:36:45.369Z,101803.56
2019-02-05T13:39:15.062Z,101808.05
2019-02-05T13:41:44.697Z,101809.91
2019-02-05T13:44:14.366Z,101805.38
2019-02-05T13:46:44.162Z,101812.94
2019-02-05T13:49:14.191Z,101810.99
2019-02-05T13:51:43.835Z,101816.09
2019-02-05T13:54:13.568Z,101815.28
2019-02-05T13:56:43.202Z,101811.39
2019-02-05T13:59:12.772Z,101820.05
2019-02-05T14:01:44.512Z,101818.76
2019-02-05T14:04:13.727Z,101817.46
2019-02-05T14:06:43.311Z,101819.48
2019-02-05T14:09:13.504Z,101823.69
2019-02-05T14:11:43.143Z,101825.80
2019-02-05T14:14:12.866Z,101819.31
2019-02-05T14:16:42.627Z,101821.50
2019-02-05T14:19:12.502Z,101824.50
2019-02-05T14:21:42.087Z,101827.97
2019-02-05T14:24:11.679Z,101833.55
2019-02-05T14:26:41.237Z,101825.88
2019-02-05T14:29:10.836Z,101825.88
2019-02-05T14:31:40.398Z,101825.06
2019-02-05T14:34:11.516Z,101836.31
2019-02-05T14:36:41.116Z,101838.90
2019-02-05T14:39:11.183Z,101843.51
2019-02-05T14:41:40.796Z,101839.63
2019-02-05T14:44:10.433Z,101840.19
2019-02-05T14:46:40.071Z,101840.28
2019-02-05T14:49:10.156Z,101843.44
2019-02-05T14:51:39.734Z,101844.64
2019-02-05T14:54:09.391Z,101854.43
2019-02-05T14:56:38.976Z,101849.98
2019-02-05T14:59:08.828Z,101854.59
2019-02-05T15:01:43.262Z,101858.78
2019-02-05T15:04:10.629Z,101858.25
2019-02-05T15:06:40.273Z,101860.67
2019-02-05T15:09:10.373Z,101860.09
2019-02-05T15:11:39.940Z,101862.44
2019-02-05T15:14:09.727Z,101863.16
2019-02-05T15:16:39.724Z,101865.69
2019-02-05T15:19:09.361Z,101865.20
2019-02-05T15:21:39.054Z,101860.03
2019-02-05T15:24:08.796Z,101870.21
2019-02-05T15:26:40.010Z,101866.65
2019-02-05T15:29:09.617Z,101867.36
2019-02-05T15:31:39.464Z,101867.28
2019-02-05T15:34:10.853Z,101864.95
2019-02-05T15:36:40.679Z,101862.28
2019-02-05T15:39:13.285Z,101866.80
2019-02-05T15:41:42.989Z,101869.30
2019-02-05T15:44:13.323Z,101865.25
2019-02-05T15:46:43.038Z,101869.84
2019-02-05T15:49:14.168Z,101873.02
2019-02-05T15:51:43.822Z,101863.70
2019-02-05T15:54:13.477Z,101867.89
2019-02-05T15:56:43.132Z,101865.22
2019-02-05T15:59:12.806Z,101866.02
2019-02-05T16:01:43.653Z,101867.48
2019-02-05T16:04:14.532Z,101872.66
2019-02-05T16:06:44.105Z,101874.63
2019-02-05T16:09:14.339Z,101877.20
2019-02-05T16:11:43.953Z,101879.80
2019-02-05T16:14:13.622Z,101873.73
2019-02-05T16:16:45.987Z,101880.59
2019-02-05T16:19:15.545Z,101879.70
2019-02-05T16:21:45.142Z,101884.79
2019-02-05T16:24:14.773Z,101888.18
2019-02-05T16:26:44.966Z,101888.09
2019-02-05T16:29:14.589Z,101888.31
2019-02-05T16:31:44.260Z,101888.75
2019-02-05T16:34:13.852Z,101893.03
2019-02-05T16:36:43.490Z,101889.16
2019-02-05T16:39:13.226Z,101896.42
2019-02-05T16:41:43.136Z,101904.58
2019-02-05T16:44:12.773Z,101894.23
2019-02-05T16:46:42.456Z,101901.50
2019-02-05T16:49:12.154Z,101901.91
2019-02-05T16:51:41.888Z,101903.59
2019-02-05T16:54:11.471Z,101915.33
2019-02-05T16:56:41.302Z,101904.00
2019-02-05T16:59:10.879Z,101905.20
2019-02-05T17:01:40.474Z,101903.42
2019-02-05T17:04:10.119Z,101901.15
2019-02-05T17:06:39.680Z,101908.02
2019-02-05T17:09:13.502Z,101911.80
2019-02-05T17:11:43.143Z,101916.17
2019-02-05T17:14:13.169Z,101913.59
2019-02-05T17:16:42.817Z,101913.98
2019-02-05T17:19:12.451Z,101916.48
2019-02-05T17:21:42.191Z,101916.88
2019-02-05T17:24:11.838Z,101917.28
2019-02-05T17:26:41.503Z,101920.36
2019-02-05T17:29:11.063Z,101925.13
2019-02-05T17:31:40.621Z,101925.22
2019-02-05T17:34:10.273Z,101929.02
2019-02-05T17:36:39.908Z,101926.28
2019-02-05T17:39:12.278Z,101920.67
2019-02-05T17:41:41.960Z,101918.52
2019-02-05T17:44:11.512Z,101916.73
2019-02-05T17:46:41.145Z,101917.14
2019-02-05T17:49:12.193Z,101918.84
2019-02-05T17:51:42.072Z,101920.53
2019-02-05T17:54:11.905Z,101920.53
2019-02-05T17:56:41.495Z,101917.45
2019-02-05T17:59:11.126Z,101919.73
2019-02-05T18:01:40.831Z,101927.57
2019-02-05T18:04:10.448Z,101920.22
2019-02-05T18:06:40.145Z,101927.08
2019-02-05T18:09:10.337Z,101926.28
2019-02-05T18:11:40.020Z,101937.02
2019-02-05T18:14:09.710Z,101936.13
2019-02-05T18:16:39.327Z,101933.86
2019-02-05T18:19:09.064Z,101942.02
2019-02-05T18:21:38.732Z,101935.14
2019-02-05T18:24:09.177Z,101929.98
2019-02-05T18:26:38.782Z,101933.95
2019-02-05T18:29:08.491Z,101931.36
2019-02-05T18:31:38.046Z,101932.56
2019-02-05T18:34:08.132Z,101932.47
2019-02-05T18:36:38.176Z,101928.91
2019-02-05T18:39:09.385Z,101927.21
2019-02-05T18:41:39.203Z,101936.17
2019-02-05T18:44:08.848Z,101927.83
2019-02-05T18:46:38.499Z,101938.08
2019-02-05T18:49:08.082Z,101934.91
2019-02-05T18:51:38.223Z,101936.06
2019-02-05T18:54:07.958Z,101934.49
2019-02-05T18:56:37.732Z,101940.37
2019-02-05T18:59:07.311Z,101941.66
2019-02-05T19:01:37.136Z,101940.19
2019-02-05T19:04:06.868Z,101945.45
2019-02-05T19:06:36.728Z,101936.71
2019-02-05T19:09:10.997Z,101940.98
2019-02-05T19:11:40.603Z,101937.95
2019-02-05T19:14:10.171Z,101944.41
2019-02-05T19:16:39.736Z,101946.64
2019-02-05T19:19:15.182Z,101941.39
2019-02-05T19:21:40.877Z,101939.70
2019-02-05T19:24:12.154Z,101938.80
2019-02-05T19:26:43.407Z,101943.17
2019-02-05T19:29:18.976Z,101940.09
2019-02-05T19:31:44.592Z,101940.98
2019-02-05T19:34:14.220Z,101951.66
2019-02-05T19:36:44.002Z,101945.61
2019-02-05T19:39:13.637Z,101941.73
2019-02-05T19:41:43.617Z,101946.00
2019-02-05T19:44:13.277Z,101948.68
2019-02-05T19:46:50.565Z,101948.28
2019-02-05T19:49:22.246Z,101959.47
2019-02-05T19:51:51.974Z,101945.70
2019-02-05T19:54:43.494Z,101948.83
2019-02-05T19:57:13.218Z,101953.50
2019-02-05T19:59:43.143Z,101954.73
2019-02-05T20:02:12.733Z,101957.38
2019-02-05T20:04:43.936Z,101954.30
2019-02-05T20:07:13.565Z,101947.84
2019-02-05T20:09:43.152Z,101957.72
2019-02-05T20:12:12.711Z,101951.41
2019-02-05T20:14:42.267Z,101961.26
2019-02-05T20:17:12.195Z,101953.11
2019-02-05T20:19:41.826Z,101958.67
2019-02-05T20:22:11.475Z,101956.44
2019-02-05T20:24:41.466Z,101958.19
2019-02-05T20:27:11.174Z,101952.21
2019-02-05T20:29:40.736Z,101959.56
2019-02-05T20:32:11.254Z,101956.09
2019-02-05T20:34:41.029Z,101962.15
2019-02-05T20:37:13.476Z,101966.03
2019-02-05T20:39:43.171Z,101959.97
2019-02-05T20:42:12.800Z,101966.12
2019-02-05T20:44:42.388Z,101961.05
2019-02-05T20:47:12.141Z,101968.00
2019-02-05T20:49:41.822Z,101957.75
2019-02-05T20:52:11.417Z,101963.02
2019-02-05T20:54:41.112Z,101967.38
2019-02-05T20:57:10.743Z,101965.69
2019-02-05T20:59:40.364Z,101966.58
2019-02-05T21:02:10.593Z,101969.56
2019-02-05T21:04:48.724Z,101975.94
2019-02-05T21:07:11.653Z,101972.77
2019-02-05T21:09:42.260Z,101973.96
2019-02-05T21:12:12.191Z,101976.45
2019-02-05T21:14:41.892Z,101976.45
2019-02-05T21:17:11.824Z,101975.96
2019-02-05T21:19:41.422Z,101984.91
2019-02-05T21:22:11.063Z,101977.50
2019-02-05T21:24:40.649Z,101989.13
2019-02-05T21:27:10.362Z,101986.95
2019-02-05T21:29:40.468Z,101985.16
2019-02-05T21:32:10.113Z,101989.93
2019-02-05T21:34:40.230Z,101993.41
2019-02-05T21:37:09.822Z,101995.66
2019-02-05T21:39:39.406Z,101999.86
2019-02-05T21:42:09.021Z,102000.36
2019-02-05T21:44:38.710Z,101998.17
2019-02-05T21:47:08.368Z,102000.27
2019-02-05T21:49:37.967Z,102001.06
2019-02-05T21:52:07.893Z,101990.82
2019-02-05T21:54:37.743Z,102000.82
2019-02-05T21:57:07.579Z,102004.78
2019-02-05T21:59:37.633Z,102004.08
2019-02-05T22:02:07.637Z,102005.47
2019-02-05T22:04:37.959Z,102004.17
2019-02-05T22:07:08.021Z,102008.14
2019-02-05T22:09:38.150Z,102012.20
2019-02-05T22:12:08.132Z,102006.64
2019-02-05T22:14:38.256Z,102004.45
2019-02-05T22:17:08.262Z,102005.25
2019-02-05T22:19:37.827Z,102005.75
2019-02-05T22:22:07.562Z,102011.22
2019-02-05T22:24:37.301Z,102008.64
2019-02-05T22:27:07.421Z,102004.67
2019-02-05T22:29:36.990Z,102001.68
2019-02-05T22:32:06.720Z,102003.37
2019-02-05T22:34:39.421Z,102000.70
2019-02-05T22:37:07.691Z,102000.61
2019-02-05T22:39:37.677Z,101997.93
2019-02-05T22:42:07.587Z,101991.77
2019-02-05T22:44:37.203Z,101991.92
2019-02-05T22:47:06.850Z,101994.23
2019-02-05T22:49:36.491Z,101993.24
2019-02-05T22:52:06.227Z,102001.79
2019-02-05T22:54:35.937Z,102002.19
2019-02-05T22:57:05.675Z,102006.56
2019-02-05T22:59:35.530Z,101997.12
2019-02-05T23:02:07.044Z,101996.23
2019-02-05T23:04:37.871Z,101990.56
2019-02-05T23:07:11.560Z,101992.34
2019-02-05T23:09:48.564Z,101992.94
2019-02-05T23:12:29.008Z,101993.52
2019-02-05T23:15:03.903Z,101998.78
2019-02-05T23:17:33.515Z,101998.88
2019-02-05T23:20:03.181Z,102005.98
2019-02-05T23:22:33.072Z,102001.71
2019-02-05T23:25:02.984Z,102002.60
2019-02-05T23:27:32.557Z,102006.17
2019-02-05T23:30:02.311Z,102003.19
2019-02-05T23:32:31.951Z,102001.80
2019-02-05T23:35:02.646Z,102000.42
2019-02-05T23:37:32.428Z,101997.77
2019-02-05T23:40:02.437Z,101998.58
2019-02-05T23:42:32.052Z,101999.77
2019-02-05T23:45:01.698Z,102007.62
2019-02-05T23:47:31.572Z,102003.34
2019-02-05T23:50:01.296Z,102004.14
2019-02-05T23:52:31.108Z,102008.02
2019-02-05T23:55:01.404Z,102009.41
2019-02-05T23:57:31.002Z,102008.91
